createdAt,value
2022-12-23T00:01:25.670Z,3.78
2022-12-23T00:03:54.006Z,3.80
2022-12-23T00:06:23.595Z,3.82
2022-12-23T00:08:58.428Z,3.80
2022-12-23T00:11:27.859Z,3.75
2022-12-23T00:14:20.128Z,3.70
2022-12-23T00:16:51.543Z,3.71
2022-12-23T00:19:19.691Z,3.73
2022-12-23T00:21:48.481Z,3.77
2022-12-23T00:24:16.591Z,3.78
2022-12-23T00:26:44.480Z,3.77
2022-12-23T00:29:12.446Z,3.70
2022-12-23T00:31:40.433Z,3.67
2022-12-23T00:34:11.897Z,3.68
2022-12-23T00:36:41.106Z,3.70
2022-12-23T00:39:30.355Z,3.71
2022-12-23T00:42:15.642Z,3.75
2022-12-23T00:44:43.667Z,3.77
2022-12-23T00:47:32.136Z,3.78
2022-12-23T00:50:00.558Z,3.81
2022-12-23T00:52:28.481Z,3.81
2022-12-23T00:54:56.419Z,3.79
2022-12-23T00:57:24.283Z,3.78
2022-12-23T00:59:52.289Z,3.78
2022-12-23T01:02:37.735Z,3.78
2022-12-23T01:08:19.103Z,3.80
2022-12-23T01:10:47.078Z,3.83
2022-12-23T01:13:14.964Z,3.88
2022-12-23T01:15:42.931Z,3.89
2022-12-23T01:18:10.871Z,3.92
2022-12-23T01:20:39.159Z,3.91
2022-12-23T01:23:07.664Z,3.96
2022-12-23T01:25:37.012Z,3.97
2022-12-23T01:28:05.145Z,3.96
2022-12-23T01:30:33.110Z,3.95
2022-12-23T01:33:01.099Z,3.95
2022-12-23T01:35:29.086Z,3.94
2022-12-23T01:37:57.077Z,3.84
2022-12-23T01:40:25.019Z,3.77
2022-12-23T01:42:53.353Z,3.71
2022-12-23T01:45:25.878Z,3.63
2022-12-23T01:47:58.514Z,3.60
2022-12-23T01:50:30.898Z,3.53
2022-12-23T01:53:07.204Z,3.46
2022-12-23T01:55:41.280Z,3.43
2022-12-23T01:58:14.738Z,3.33
2022-12-23T02:01:01.145Z,3.32
2022-12-23T02:03:44.794Z,3.31
2022-12-23T02:06:38.025Z,3.27
2022-12-23T02:09:19.447Z,3.26
2022-12-23T02:12:29.798Z,3.23
2022-12-23T02:15:32.922Z,3.22
2022-12-23T02:18:13.778Z,3.18
2022-12-23T02:21:10.923Z,3.14
2022-12-23T02:24:03.610Z,3.08
2022-12-23T02:27:05.953Z,3.00
2022-12-23T02:30:09.226Z,2.92
2022-12-23T02:33:01.134Z,2.83
2022-12-23T02:35:34.672Z,2.75
2022-12-23T02:38:10.368Z,2.68
2022-12-23T02:40:45.458Z,2.58
2022-12-23T02:43:19.999Z,2.52
2022-12-23T02:45:55.831Z,2.47
2022-12-23T02:48:31.509Z,2.46
2022-12-23T02:51:01.556Z,2.47
2022-12-23T02:53:35.012Z,2.45
2022-12-23T02:56:04.991Z,2.45
2022-12-23T02:58:38.471Z,2.43
2022-12-23T03:01:08.028Z,2.40
2022-12-23T03:03:39.050Z,2.36
2022-12-23T03:06:18.934Z,2.31
2022-12-23T03:08:47.623Z,2.29
2022-12-23T03:11:17.860Z,2.23
2022-12-23T03:14:11.193Z,2.15
2022-12-23T03:16:53.056Z,2.11
2022-12-23T03:19:30.172Z,2.06
2022-12-23T03:22:07.115Z,2.01
2022-12-23T03:24:41.598Z,1.98
2022-12-23T03:27:16.289Z,1.93
2022-12-23T03:29:49.887Z,1.91
2022-12-23T03:32:20.496Z,1.88
2022-12-23T03:34:53.473Z,1.86
2022-12-23T03:37:24.673Z,1.87
2022-12-23T03:39:58.750Z,1.87
2022-12-23T03:42:32.905Z,1.88
2022-12-23T03:47:59.086Z,1.90
2022-12-23T03:50:30.255Z,1.89
2022-12-23T03:53:02.528Z,1.88
2022-12-23T03:55:35.662Z,1.86
2022-12-23T03:58:11.615Z,1.84
2022-12-23T04:00:45.857Z,1.84
2022-12-23T04:03:23.152Z,1.79
2022-12-23T04:05:55.819Z,1.78
2022-12-23T04:08:28.499Z,1.78
2022-12-23T04:10:56.696Z,1.77
2022-12-23T04:13:24.677Z,1.78
2022-12-23T04:15:52.838Z,1.78
2022-12-23T04:18:20.857Z,1.77
2022-12-23T04:20:48.865Z,1.76
2022-12-23T04:23:18.314Z,1.77
2022-12-23T04:25:46.276Z,1.76
2022-12-23T04:28:14.197Z,1.77
2022-12-23T04:30:42.202Z,1.79
2022-12-23T04:33:12.041Z,1.80
2022-12-23T04:35:40.306Z,1.81
2022-12-23T04:38:08.973Z,1.80
2022-12-23T04:40:38.421Z,1.76
2022-12-23T04:43:06.331Z,1.75
2022-12-23T04:45:34.326Z,1.71
2022-12-23T04:48:02.292Z,1.65
2022-12-23T04:50:30.174Z,1.56
2022-12-23T04:52:58.217Z,1.49
2022-12-23T04:55:26.190Z,1.47
2022-12-23T04:57:55.462Z,1.49
2022-12-23T05:00:23.485Z,1.52
2022-12-23T05:02:51.529Z,1.57
2022-12-23T05:05:19.574Z,1.60
2022-12-23T05:07:50.761Z,1.64
2022-12-23T05:10:18.930Z,1.72
2022-12-23T05:12:46.897Z,1.83
2022-12-23T05:15:16.252Z,1.82
2022-12-23T05:17:44.205Z,1.82
2022-12-23T05:20:12.553Z,1.81
2022-12-23T05:22:40.605Z,1.76
2022-12-23T05:25:09.785Z,1.74
2022-12-23T05:27:37.762Z,1.75
2022-12-23T05:30:06.784Z,1.81
2022-12-23T05:32:36.202Z,1.87
2022-12-23T05:35:04.227Z,1.94
2022-12-23T05:37:32.154Z,2.00
2022-12-23T05:40:00.124Z,2.03
2022-12-23T05:42:28.393Z,2.03
2022-12-23T05:44:56.313Z,1.95
2022-12-23T05:47:24.244Z,1.92
2022-12-23T05:49:53.617Z,1.87
2022-12-23T05:52:21.659Z,1.85
2022-12-23T05:54:49.616Z,1.80
2022-12-23T05:57:17.641Z,1.77
2022-12-23T05:59:45.570Z,1.75
2022-12-23T06:02:13.766Z,1.68
2022-12-23T06:04:41.823Z,1.57
2022-12-23T06:07:11.228Z,1.51
2022-12-23T06:09:39.195Z,1.50
2022-12-23T06:12:07.545Z,1.47
2022-12-23T06:14:35.559Z,1.43
2022-12-23T06:17:03.527Z,1.41
2022-12-23T06:19:31.512Z,1.38
2022-12-23T06:21:59.518Z,1.36
2022-12-23T06:24:28.870Z,1.34
2022-12-23T06:26:57.525Z,1.32
2022-12-23T06:29:25.748Z,1.32
2022-12-23T06:31:53.893Z,1.33
2022-12-23T06:34:21.957Z,1.35
2022-12-23T06:36:50.066Z,1.35
2022-12-23T06:39:17.978Z,1.38
2022-12-23T06:41:47.570Z,1.40
2022-12-23T06:44:15.804Z,1.45
2022-12-23T06:46:43.801Z,1.48
2022-12-23T06:49:13.752Z,1.46
2022-12-23T06:51:42.281Z,1.46
2022-12-23T06:54:12.388Z,1.45
2022-12-23T06:56:40.508Z,1.50
2022-12-23T06:59:09.882Z,1.52
2022-12-23T07:01:37.961Z,1.57
2022-12-23T07:04:06.244Z,1.62
2022-12-23T07:06:34.182Z,1.67
2022-12-23T07:09:02.243Z,1.74
2022-12-23T07:11:30.159Z,1.84
2022-12-23T07:13:59.521Z,1.92
2022-12-23T07:16:28.959Z,1.99
2022-12-23T07:18:57.040Z,2.11
2022-12-23T07:21:29.385Z,2.27
2022-12-23T07:23:57.954Z,2.41
2022-12-23T07:26:25.890Z,2.58
2022-12-23T07:28:53.860Z,2.74
2022-12-23T07:31:21.845Z,2.88
2022-12-23T07:33:51.255Z,3.03
2022-12-23T07:36:19.128Z,3.15
2022-12-23T07:38:50.593Z,3.29
2022-12-23T07:41:18.875Z,3.41
2022-12-23T07:43:46.937Z,3.51
2022-12-23T07:46:15.116Z,3.60
2022-12-23T07:48:43.271Z,3.67
2022-12-23T07:51:12.774Z,3.72
2022-12-23T07:53:40.799Z,3.79
2022-12-23T07:56:09.449Z,3.79
2022-12-23T07:58:37.454Z,3.85
2022-12-23T08:01:08.096Z,3.91
2022-12-23T08:03:37.021Z,3.99
2022-12-23T08:06:07.358Z,4.06
2022-12-23T08:08:37.169Z,4.14
2022-12-23T08:11:07.053Z,4.19
2022-12-23T08:13:36.439Z,4.27
2022-12-23T08:16:06.406Z,4.32
2022-12-23T08:18:35.768Z,4.36
2022-12-23T08:21:06.317Z,4.41
2022-12-23T08:23:36.377Z,4.38
2022-12-23T08:26:06.402Z,4.40
2022-12-23T08:28:35.508Z,4.50
2022-12-23T08:31:06.961Z,4.64
2022-12-23T08:33:36.391Z,4.77
2022-12-23T08:36:05.240Z,4.90
2022-12-23T08:38:33.567Z,5.01
2022-12-23T08:41:03.378Z,5.13
2022-12-23T08:43:35.784Z,5.24
2022-12-23T08:46:04.324Z,5.30
2022-12-23T08:48:32.824Z,5.38
2022-12-23T08:51:04.283Z,5.44
2022-12-23T08:53:32.320Z,5.54
2022-12-23T08:56:05.128Z,5.58
2022-12-23T08:58:33.296Z,5.63
2022-12-23T09:01:05.003Z,5.66
2022-12-23T09:03:33.666Z,5.72
2022-12-23T09:06:05.864Z,5.81
2022-12-23T09:08:34.053Z,5.86
2022-12-23T09:11:03.597Z,5.91
2022-12-23T09:13:35.683Z,5.95
2022-12-23T09:16:04.173Z,6.00
2022-12-23T09:18:32.417Z,6.03
2022-12-23T09:21:01.282Z,6.07
2022-12-23T09:23:29.647Z,6.11
2022-12-23T09:25:57.740Z,6.13
2022-12-23T09:28:27.647Z,6.14
2022-12-23T09:30:55.668Z,6.15
2022-12-23T09:33:24.011Z,6.15
2022-12-23T09:35:51.943Z,6.15
2022-12-23T09:38:19.809Z,6.17
2022-12-23T09:40:47.738Z,6.13
2022-12-23T09:43:27.362Z,6.06
2022-12-23T09:46:07.430Z,6.02
2022-12-23T09:48:42.724Z,5.99
2022-12-23T09:51:12.360Z,5.93
2022-12-23T09:53:50.655Z,5.93
2022-12-23T09:56:26.385Z,5.94
2022-12-23T09:59:04.990Z,5.99
2022-12-23T10:01:44.629Z,6.06
2022-12-23T10:04:38.971Z,6.13
2022-12-23T10:07:19.460Z,6.26
2022-12-23T10:09:50.415Z,6.42
2022-12-23T10:12:28.818Z,6.57
2022-12-23T10:15:02.602Z,6.68
2022-12-23T10:17:36.287Z,6.81
2022-12-23T10:20:11.288Z,6.82
2022-12-23T10:22:42.601Z,6.91
2022-12-23T10:25:16.083Z,7.06
2022-12-23T10:27:45.077Z,7.16
2022-12-23T10:30:42.427Z,7.27
2022-12-23T10:33:13.122Z,7.48
2022-12-23T10:35:50.130Z,7.67
2022-12-23T10:38:32.547Z,7.79
2022-12-23T10:41:09.528Z,7.90
2022-12-23T10:43:48.448Z,7.99
2022-12-23T10:46:23.766Z,8.04
2022-12-23T10:49:01.049Z,8.07
2022-12-23T10:51:34.079Z,8.13
2022-12-23T10:54:06.596Z,8.03
2022-12-23T10:56:35.031Z,7.99
2022-12-23T10:59:03.157Z,7.94
2022-12-23T11:01:32.423Z,7.90
2022-12-23T11:04:10.166Z,7.82
2022-12-23T11:06:40.715Z,7.84
2022-12-23T11:09:16.226Z,7.85
2022-12-23T11:11:53.848Z,7.83
2022-12-23T11:14:32.081Z,7.79
2022-12-23T11:17:00.108Z,7.75
2022-12-23T11:19:29.708Z,7.65
2022-12-23T11:21:59.778Z,7.61
2022-12-23T11:24:35.420Z,7.60
2022-12-23T11:27:07.413Z,7.56
2022-12-23T11:29:38.601Z,7.58
2022-12-23T11:32:19.748Z,7.57
2022-12-23T11:34:50.195Z,7.61
2022-12-23T11:37:36.704Z,7.60
2022-12-23T11:40:06.428Z,7.64
2022-12-23T11:42:36.007Z,7.67
2022-12-23T11:45:08.555Z,7.64
2022-12-23T11:47:41.066Z,7.63
2022-12-23T11:50:29.002Z,7.60
2022-12-23T11:53:04.991Z,7.64
2022-12-23T11:55:33.952Z,7.61
2022-12-23T11:58:03.889Z,7.54
2022-12-23T12:00:40.212Z,7.59
2022-12-23T12:03:15.415Z,7.62
2022-12-23T12:05:50.993Z,7.61
2022-12-23T12:08:23.675Z,7.65
2022-12-23T12:10:53.941Z,7.70
2022-12-23T12:13:27.740Z,7.73
2022-12-23T12:16:10.754Z,7.71
2022-12-23T12:18:40.994Z,7.72
2022-12-23T12:21:16.186Z,7.75
2022-12-23T12:23:48.775Z,7.79
2022-12-23T12:26:25.019Z,7.80
2022-12-23T12:28:58.307Z,7.80
2022-12-23T12:31:31.603Z,7.70
2022-12-23T12:34:05.245Z,7.67
2022-12-23T12:36:42.983Z,7.67
2022-12-23T12:39:19.241Z,7.69
2022-12-23T12:41:52.615Z,7.74
2022-12-23T12:44:31.252Z,7.79
2022-12-23T12:47:28.091Z,7.81
2022-12-23T12:49:58.319Z,7.84
2022-12-23T12:52:29.311Z,7.86
2022-12-23T12:55:03.164Z,7.86
2022-12-23T12:57:33.419Z,7.87
2022-12-23T13:00:06.531Z,7.87
2022-12-23T13:03:05.654Z,7.87
2022-12-23T13:05:51.676Z,7.91
2022-12-23T13:08:33.893Z,7.91
2022-12-23T13:11:10.997Z,7.92
2022-12-23T13:13:46.552Z,7.91
2022-12-23T13:16:25.351Z,7.91
2022-12-23T13:18:59.501Z,7.94
2022-12-23T13:21:33.980Z,7.93
2022-12-23T13:24:16.126Z,7.90
2022-12-23T13:26:56.246Z,7.90
2022-12-23T13:30:05.799Z,7.84
2022-12-23T13:32:50.810Z,7.77
2022-12-23T13:35:33.701Z,7.72
2022-12-23T13:38:19.962Z,7.69
2022-12-23T13:40:58.698Z,7.69
2022-12-23T13:43:30.880Z,7.69
2022-12-23T13:46:01.707Z,7.66
2022-12-23T13:48:40.286Z,7.65
2022-12-23T13:51:15.333Z,7.64
2022-12-23T13:53:49.436Z,7.64
2022-12-23T13:56:28.201Z,7.61
2022-12-23T13:58:57.298Z,7.58
2022-12-23T14:01:37.742Z,7.55
2022-12-23T14:04:32.223Z,7.51
2022-12-23T14:07:02.045Z,7.46
2022-12-23T14:09:34.056Z,7.36
2022-12-23T14:12:21.073Z,7.30
2022-12-23T14:15:16.440Z,7.26
2022-12-23T14:17:51.886Z,7.29
2022-12-23T14:20:32.703Z,7.24
2022-12-23T14:23:15.344Z,7.18
2022-12-23T14:25:56.400Z,7.15
2022-12-23T14:28:38.466Z,7.09
2022-12-23T14:31:06.660Z,7.03
2022-12-23T14:33:37.827Z,6.94
2022-12-23T14:36:23.377Z,6.88
2022-12-23T14:39:24.347Z,6.87
2022-12-23T14:41:56.522Z,6.89
2022-12-23T14:44:51.718Z,6.90
2022-12-23T14:47:35.382Z,6.92
2022-12-23T14:50:37.941Z,6.93
2022-12-23T14:53:20.434Z,6.95
2022-12-23T14:55:50.078Z,6.93
2022-12-23T14:58:55.457Z,6.90
2022-12-23T15:01:31.460Z,6.91
2022-12-23T15:04:01.806Z,6.87
2022-12-23T15:06:36.487Z,6.85
2022-12-23T15:09:07.441Z,6.81
2022-12-23T15:11:37.530Z,6.71
2022-12-23T15:14:13.564Z,6.62
2022-12-23T15:16:45.235Z,6.51
2022-12-23T15:19:25.901Z,6.37
2022-12-23T15:22:17.961Z,6.24
2022-12-23T15:24:50.689Z,6.13
2022-12-23T15:27:29.352Z,5.96
2022-12-23T15:29:59.283Z,5.82
2022-12-23T15:32:30.660Z,5.71
2022-12-23T15:35:05.150Z,5.61
2022-12-23T15:37:36.820Z,5.50
2022-12-23T15:40:13.436Z,5.40
2022-12-23T15:42:50.747Z,5.25
2022-12-23T15:45:43.568Z,5.10
2022-12-23T15:48:26.599Z,4.98
2022-12-23T15:50:58.387Z,4.85
2022-12-23T15:53:32.400Z,4.68
2022-12-23T15:56:05.024Z,4.58
2022-12-23T15:58:35.092Z,4.48
2022-12-23T16:01:03.324Z,4.42
2022-12-23T16:03:35.230Z,4.40
2022-12-23T16:06:11.537Z,4.39
2022-12-23T16:08:40.444Z,4.37
2022-12-23T16:11:16.035Z,4.28
2022-12-23T16:13:58.671Z,4.21
2022-12-23T16:16:38.198Z,4.13
2022-12-23T16:19:27.995Z,4.07
2022-12-23T16:21:55.989Z,4.00
2022-12-23T16:24:24.042Z,3.93
2022-12-23T16:26:52.140Z,3.87
2022-12-23T16:29:20.830Z,3.75
2022-12-23T16:31:54.426Z,3.65
2022-12-23T16:34:31.864Z,3.52
2022-12-23T16:36:59.824Z,3.44
2022-12-23T16:39:28.011Z,3.33
2022-12-23T16:41:55.978Z,3.23
2022-12-23T16:44:26.446Z,3.15
2022-12-23T16:46:54.391Z,3.08
2022-12-23T16:49:29.494Z,3.05
2022-12-23T16:52:00.979Z,3.09
2022-12-23T16:54:29.101Z,3.14
2022-12-23T16:56:57.225Z,3.15
2022-12-23T16:59:26.060Z,3.15
2022-12-23T17:01:58.182Z,3.09
2022-12-23T17:04:31.002Z,3.06
2022-12-23T17:07:00.435Z,2.99
2022-12-23T17:09:28.439Z,2.91
2022-12-23T17:11:56.661Z,2.83
2022-12-23T17:14:26.064Z,2.77
2022-12-23T17:16:54.239Z,2.73
2022-12-23T17:19:28.613Z,2.75
2022-12-23T17:22:02.816Z,2.75
2022-12-23T17:24:30.871Z,2.75
2022-12-23T17:26:59.219Z,2.76
2022-12-23T17:29:28.241Z,2.74
2022-12-23T17:31:56.459Z,2.71
2022-12-23T17:34:25.692Z,2.67
2022-12-23T17:36:53.836Z,2.67
2022-12-23T17:39:23.765Z,2.64
2022-12-23T17:41:52.021Z,2.63
2022-12-23T17:44:20.128Z,2.60
2022-12-23T17:46:48.391Z,2.53
2022-12-23T17:49:16.306Z,2.45
2022-12-23T17:51:44.532Z,2.43
2022-12-23T17:54:22.608Z,2.35
2022-12-23T17:56:52.856Z,2.29
2022-12-23T17:59:21.691Z,2.25
2022-12-23T18:01:50.460Z,2.24
2022-12-23T18:04:18.644Z,2.24
2022-12-23T18:06:48.762Z,2.23
2022-12-23T18:09:16.923Z,2.22
2022-12-23T18:11:46.393Z,2.25
2022-12-23T18:14:19.240Z,2.24
2022-12-23T18:16:47.784Z,2.20
2022-12-23T18:19:19.102Z,2.20
2022-12-23T18:21:47.399Z,2.20
2022-12-23T18:24:15.795Z,2.16
2022-12-23T18:26:44.092Z,2.09
2022-12-23T18:29:12.120Z,2.00
2022-12-23T18:31:51.528Z,1.96
2022-12-23T18:34:20.709Z,1.96
2022-12-23T18:36:51.537Z,1.96
2022-12-23T18:39:20.138Z,1.94
2022-12-23T18:41:48.148Z,1.92
2022-12-23T18:44:19.015Z,1.90
2022-12-23T18:46:49.152Z,1.88
2022-12-23T18:49:20.067Z,1.87
2022-12-23T18:51:48.746Z,1.88
2022-12-23T18:54:19.629Z,1.83
2022-12-23T18:56:49.293Z,1.78
2022-12-23T18:59:29.622Z,1.71
2022-12-23T19:02:05.240Z,1.61
2022-12-23T19:04:35.436Z,1.50
2022-12-23T19:07:05.795Z,1.43
2022-12-23T19:09:33.820Z,1.38
2022-12-23T19:12:01.836Z,1.32
2022-12-23T19:14:29.760Z,1.30
2022-12-23T19:17:01.042Z,1.28
2022-12-23T19:19:28.952Z,1.29
2022-12-23T19:21:56.871Z,1.30
2022-12-23T19:24:25.064Z,1.30
2022-12-23T19:26:53.005Z,1.32
2022-12-23T19:29:20.878Z,1.36
2022-12-23T19:31:48.835Z,1.38
2022-12-23T19:34:18.190Z,1.43
2022-12-23T19:36:46.218Z,1.47
2022-12-23T19:39:16.669Z,1.50
2022-12-23T19:41:45.333Z,1.57
2022-12-23T19:44:13.331Z,1.67
2022-12-23T19:46:41.518Z,1.77
2022-12-23T19:49:14.036Z,1.87
2022-12-23T19:51:47.154Z,1.98
2022-12-23T19:54:15.240Z,2.14
2022-12-23T19:56:43.234Z,2.28
2022-12-23T19:59:11.266Z,2.39
2022-12-23T20:01:39.421Z,2.47
2022-12-23T20:04:07.490Z,2.58
2022-12-23T20:06:38.367Z,2.64
2022-12-23T20:09:08.791Z,2.68
2022-12-23T20:11:38.951Z,2.73
2022-12-23T20:14:07.911Z,2.73
2022-12-23T20:16:37.496Z,2.68
2022-12-23T20:19:05.926Z,2.60
2022-12-23T20:21:34.093Z,2.59
2022-12-23T20:24:02.494Z,2.60
2022-12-23T20:26:31.846Z,2.59
2022-12-23T20:29:00.018Z,2.56
2022-12-23T20:31:30.080Z,2.53
2022-12-23T20:33:59.455Z,2.56
2022-12-23T20:36:29.673Z,2.66
2022-12-23T20:38:57.938Z,2.73
2022-12-23T20:41:29.671Z,2.71
2022-12-23T20:46:48.124Z,2.87
2022-12-23T20:49:16.320Z,2.98
2022-12-23T20:51:44.261Z,3.10
2022-12-23T20:54:12.767Z,3.22
2022-12-23T20:56:43.542Z,3.29
2022-12-23T20:59:13.160Z,3.40
2022-12-23T21:01:42.076Z,3.46
2022-12-23T21:04:12.833Z,3.51
2022-12-23T21:06:41.075Z,3.55
2022-12-23T21:09:11.716Z,3.63
2022-12-23T21:11:43.154Z,3.68
2022-12-23T21:14:13.820Z,3.75
2022-12-23T21:16:42.072Z,3.81
2022-12-23T21:19:14.871Z,3.87
2022-12-23T21:21:42.795Z,3.91
2022-12-23T21:24:11.080Z,3.96
2022-12-23T21:26:39.693Z,4.01
2022-12-23T21:29:09.465Z,4.04
2022-12-23T21:31:42.139Z,4.05
2022-12-23T21:34:14.302Z,4.06
2022-12-23T21:36:43.732Z,4.09
2022-12-23T21:39:14.701Z,4.09
2022-12-23T21:41:43.131Z,4.12
2022-12-23T21:44:13.647Z,4.13
2022-12-23T21:46:43.209Z,4.14
2022-12-23T21:49:11.991Z,4.13
2022-12-23T21:51:41.525Z,4.13
2022-12-23T21:54:11.647Z,4.12
2022-12-23T21:56:41.389Z,4.12
2022-12-23T21:59:12.924Z,4.13
2022-12-23T22:01:43.048Z,4.10
2022-12-23T22:04:11.136Z,4.07
2022-12-23T22:06:43.541Z,4.05
2022-12-23T22:09:13.248Z,3.99
2022-12-23T22:11:41.244Z,3.91
2022-12-23T22:14:11.695Z,3.85
2022-12-23T22:16:39.741Z,3.78
2022-12-23T22:19:09.618Z,3.74
2022-12-23T22:21:39.573Z,3.72
2022-12-23T22:24:08.417Z,3.65
2022-12-23T22:26:37.269Z,3.64
2022-12-23T22:29:07.248Z,3.66
2022-12-23T22:31:39.898Z,3.69
2022-12-23T22:34:13.661Z,3.72
2022-12-23T22:36:41.678Z,3.77
2022-12-23T22:39:11.893Z,3.80
2022-12-23T22:41:43.881Z,3.89
2022-12-23T22:44:13.835Z,3.95
2022-12-23T22:46:41.913Z,4.02
2022-12-23T22:49:13.083Z,3.95
2022-12-23T22:51:41.995Z,3.94
2022-12-23T22:54:10.456Z,3.97
2022-12-23T22:56:38.555Z,3.91
2022-12-23T22:59:06.868Z,3.85
2022-12-23T23:01:36.576Z,3.76
2022-12-23T23:04:05.415Z,3.74
2022-12-23T23:06:38.085Z,3.78
2022-12-23T23:09:08.972Z,3.83
2022-12-23T23:11:37.219Z,3.91
2022-12-23T23:14:05.715Z,3.97
2022-12-23T23:16:34.630Z,4.01
2022-12-23T23:19:03.133Z,4.08
2022-12-23T23:21:31.319Z,4.14
2022-12-23T23:24:00.603Z,4.19
2022-12-23T23:26:28.571Z,4.25
2022-12-23T23:28:57.686Z,4.26
2022-12-23T23:31:43.242Z,4.30
2022-12-23T23:34:12.245Z,4.28
2022-12-23T23:36:40.507Z,4.27
2022-12-23T23:39:11.991Z,4.20
2022-12-23T23:41:41.077Z,4.13
2022-12-23T23:44:09.083Z,4.11
2022-12-23T23:46:37.123Z,4.10
2022-12-23T23:49:05.220Z,4.03
2022-12-23T23:51:33.192Z,3.95
2022-12-23T23:54:01.178Z,3.86
2022-12-23T23:56:37.587Z,3.76
2022-12-23T23:59:06.848Z,3.71
